createdAt,value
2023-02-06T00:01:09.234Z,-5.67
2023-02-06T00:03:42.226Z,-5.70
2023-02-06T00:06:09.950Z,-5.74
2023-02-06T00:08:37.705Z,-5.78
2023-02-06T00:11:07.953Z,-5.80
2023-02-06T00:13:36.584Z,-5.80
2023-02-06T00:16:05.303Z,-5.80
2023-02-06T00:18:33.064Z,-5.78
2023-02-06T00:21:00.602Z,-5.76
2023-02-06T00:23:28.663Z,-5.74
2023-02-06T00:25:56.254Z,-5.72
2023-02-06T00:28:23.964Z,-5.71
2023-02-06T00:30:51.629Z,-5.71
2023-02-06T00:33:21.156Z,-5.70
2023-02-06T00:35:48.885Z,-5.69
2023-02-06T00:38:16.639Z,-5.67
2023-02-06T00:40:44.424Z,-5.66
2023-02-06T00:43:11.993Z,-5.66
2023-02-06T00:45:39.782Z,-5.65
2023-02-06T00:48:07.809Z,-5.64
2023-02-06T00:50:36.010Z,-5.63
2023-02-06T00:53:03.693Z,-5.63
2023-02-06T00:55:31.332Z,-5.63
2023-02-06T00:57:58.906Z,-5.63
2023-02-06T01:00:26.722Z,-5.65
2023-02-06T01:02:54.757Z,-5.67
2023-02-06T01:05:22.450Z,-5.69
2023-02-06T01:07:50.563Z,-5.72
2023-02-06T01:10:18.530Z,-5.75
2023-02-06T01:12:46.234Z,-5.80
2023-02-06T01:15:14.515Z,-5.83
2023-02-06T01:17:42.430Z,-5.86
2023-02-06T01:20:12.721Z,-5.89
2023-02-06T01:22:40.642Z,-5.93
2023-02-06T01:25:08.836Z,-5.99
2023-02-06T01:27:37.229Z,-6.03
2023-02-06T01:30:06.820Z,-6.09
2023-02-06T01:32:39.892Z,-6.15
2023-02-06T01:35:09.120Z,-6.22
2023-02-06T01:37:38.070Z,-6.27
2023-02-06T01:40:08.466Z,-6.30
2023-02-06T01:42:37.850Z,-6.32
2023-02-06T01:45:23.870Z,-6.35
2023-02-06T01:47:56.573Z,-6.39
2023-02-06T01:50:24.357Z,-6.43
2023-02-06T01:52:52.397Z,-6.49
2023-02-06T01:55:20.421Z,-6.54
2023-02-06T01:57:48.054Z,-6.61
2023-02-06T02:00:15.863Z,-6.69
2023-02-06T02:02:47.000Z,-6.77
2023-02-06T02:05:17.341Z,-6.83
2023-02-06T02:07:58.581Z,-6.91
2023-02-06T02:10:27.419Z,-6.98
2023-02-06T02:12:55.241Z,-7.05
2023-02-06T02:15:30.897Z,-7.11
2023-02-06T02:18:21.256Z,-7.17
2023-02-06T02:21:03.269Z,-7.24
2023-02-06T02:23:45.591Z,-7.30
2023-02-06T02:26:51.017Z,-7.36
2023-02-06T02:29:51.056Z,-7.43
2023-02-06T02:32:27.696Z,-7.50
2023-02-06T02:35:17.187Z,-7.56
2023-02-06T02:38:03.168Z,-7.61
2023-02-06T02:40:50.658Z,-7.63
2023-02-06T02:43:30.046Z,-7.65
2023-02-06T02:46:05.768Z,-7.68
2023-02-06T02:48:38.389Z,-7.71
2023-02-06T02:51:07.190Z,-7.73
2023-02-06T02:53:35.010Z,-7.76
2023-02-06T02:56:02.926Z,-7.81
2023-02-06T02:58:34.679Z,-7.83
2023-02-06T03:01:10.112Z,-7.84
2023-02-06T03:03:40.716Z,-7.86
2023-02-06T03:06:17.380Z,-7.86
2023-02-06T03:09:07.401Z,-7.89
2023-02-06T03:11:41.492Z,-7.95
2023-02-06T03:14:21.306Z,-7.99
2023-02-06T03:16:57.410Z,-8.05
2023-02-06T03:19:31.530Z,-8.10
2023-02-06T03:22:01.035Z,-8.15
2023-02-06T03:24:32.874Z,-8.22
2023-02-06T03:27:03.598Z,-8.29
2023-02-06T03:29:32.896Z,-8.31
2023-02-06T03:32:05.897Z,-8.34
2023-02-06T03:34:55.999Z,-8.39
2023-02-06T03:37:25.096Z,-8.41
2023-02-06T03:39:52.895Z,-8.43
2023-02-06T03:42:22.902Z,-8.48
2023-02-06T03:44:59.137Z,-8.54
2023-02-06T03:47:29.271Z,-8.60
2023-02-06T03:50:00.180Z,-8.66
2023-02-06T03:52:35.773Z,-8.73
2023-02-06T03:55:09.149Z,-8.79
2023-02-06T03:57:37.969Z,-8.86
2023-02-06T04:00:06.720Z,-8.91
2023-02-06T04:02:35.601Z,-8.96
2023-02-06T04:05:03.384Z,-9.00
2023-02-06T04:07:35.196Z,-9.03
2023-02-06T04:10:03.583Z,-9.07
2023-02-06T04:12:31.269Z,-9.12
2023-02-06T04:14:58.876Z,-9.15
2023-02-06T04:17:43.202Z,-9.20
2023-02-06T04:20:14.329Z,-9.26
2023-02-06T04:22:41.952Z,-9.31
2023-02-06T04:25:10.030Z,-9.37
2023-02-06T04:27:38.037Z,-9.41
2023-02-06T04:30:06.552Z,-9.47
2023-02-06T04:32:34.604Z,-9.52
2023-02-06T04:35:02.367Z,-9.56
2023-02-06T04:37:29.974Z,-9.59
2023-02-06T04:39:57.541Z,-9.63
2023-02-06T04:42:25.821Z,-9.69
2023-02-06T04:44:53.529Z,-9.74
2023-02-06T04:47:21.135Z,-9.81
2023-02-06T04:49:48.770Z,-9.86
2023-02-06T04:52:16.522Z,-9.91
2023-02-06T04:54:44.429Z,-9.97
2023-02-06T04:57:12.105Z,-10.00
2023-02-06T04:59:39.737Z,-10.04
2023-02-06T05:02:07.332Z,-10.09
2023-02-06T05:04:34.939Z,-10.12
2023-02-06T05:07:05.158Z,-10.15
2023-02-06T05:09:33.025Z,-10.18
2023-02-06T05:12:00.647Z,-10.20
2023-02-06T05:14:28.430Z,-10.20
2023-02-06T05:16:56.216Z,-10.18
2023-02-06T05:19:24.012Z,-10.17
2023-02-06T05:21:51.606Z,-10.15
2023-02-06T05:24:19.202Z,-10.11
2023-02-06T05:26:47.070Z,-10.06
2023-02-06T05:29:14.802Z,-10.00
2023-02-06T05:31:42.536Z,-9.95
2023-02-06T05:34:10.367Z,-9.91
2023-02-06T05:36:38.072Z,-9.85
2023-02-06T05:39:06.228Z,-9.82
2023-02-06T05:41:33.804Z,-9.79
2023-02-06T05:44:01.526Z,-9.75
2023-02-06T05:46:29.434Z,-9.72
2023-02-06T05:48:57.215Z,-9.69
2023-02-06T05:51:25.244Z,-9.66
2023-02-06T05:53:53.005Z,-9.62
2023-02-06T05:56:20.796Z,-9.58
2023-02-06T05:58:48.534Z,-9.53
2023-02-06T06:01:16.382Z,-9.48
2023-02-06T06:03:44.146Z,-9.42
2023-02-06T06:06:11.771Z,-9.36
2023-02-06T06:08:39.489Z,-9.30
2023-02-06T06:11:07.330Z,-9.24
2023-02-06T06:13:35.193Z,-9.16
2023-02-06T06:16:03.078Z,-9.11
2023-02-06T06:18:30.789Z,-9.04
2023-02-06T06:20:59.246Z,-8.97
2023-02-06T06:23:26.857Z,-8.93
2023-02-06T06:25:54.389Z,-8.87
2023-02-06T06:28:22.291Z,-8.79
2023-02-06T06:30:50.108Z,-8.70
2023-02-06T06:33:17.727Z,-8.60
2023-02-06T06:35:45.286Z,-8.50
2023-02-06T06:38:12.925Z,-8.38
2023-02-06T06:40:41.606Z,-8.24
2023-02-06T06:43:09.136Z,-8.08
2023-02-06T06:45:37.183Z,-7.93
2023-02-06T06:48:05.068Z,-7.78
2023-02-06T06:50:32.636Z,-7.62
2023-02-06T06:53:00.215Z,-7.42
2023-02-06T06:55:28.051Z,-7.27
2023-02-06T06:57:55.994Z,-7.09
2023-02-06T07:00:23.936Z,-6.92
2023-02-06T07:02:53.118Z,-6.76
2023-02-06T07:05:21.359Z,-6.56
2023-02-06T07:07:49.034Z,-6.32
2023-02-06T07:10:17.094Z,-6.09
2023-02-06T07:12:45.003Z,-5.86
2023-02-06T07:15:12.665Z,-5.63
2023-02-06T07:17:40.437Z,-5.43
2023-02-06T07:20:08.660Z,-5.22
2023-02-06T07:22:36.265Z,-5.02
2023-02-06T07:25:04.706Z,-4.81
2023-02-06T07:27:32.879Z,-4.63
2023-02-06T07:30:00.518Z,-4.47
2023-02-06T07:32:28.371Z,-4.30
2023-02-06T07:34:55.944Z,-4.13
2023-02-06T07:37:23.657Z,-3.94
2023-02-06T07:39:51.449Z,-3.77
2023-02-06T07:42:19.091Z,-3.68
2023-02-06T07:44:46.655Z,-3.59
2023-02-06T07:47:14.394Z,-3.51
2023-02-06T07:49:42.197Z,-3.46
2023-02-06T07:52:09.901Z,-3.37
2023-02-06T07:54:37.725Z,-3.25
2023-02-06T07:57:05.332Z,-3.15
2023-02-06T07:59:32.977Z,-3.09
2023-02-06T08:02:00.500Z,-3.01
2023-02-06T08:04:28.341Z,-2.91
2023-02-06T08:06:55.950Z,-2.83
2023-02-06T08:09:23.527Z,-2.81
2023-02-06T08:11:51.140Z,-2.78
2023-02-06T08:14:18.705Z,-2.76
2023-02-06T08:16:46.847Z,-2.79
2023-02-06T08:19:14.530Z,-2.84
2023-02-06T08:21:42.318Z,-2.88
2023-02-06T08:24:12.673Z,-2.93
2023-02-06T08:26:40.387Z,-3.01
2023-02-06T08:29:08.685Z,-3.08
2023-02-06T08:31:41.253Z,-3.14
2023-02-06T08:34:14.149Z,-3.21
2023-02-06T08:36:43.675Z,-3.29
2023-02-06T08:39:15.220Z,-3.37
2023-02-06T08:41:44.348Z,-3.46
2023-02-06T08:44:18.044Z,-3.51
2023-02-06T08:46:47.085Z,-3.56
2023-02-06T08:49:18.504Z,-3.56
2023-02-06T08:51:47.205Z,-3.54
2023-02-06T08:54:17.954Z,-3.49
2023-02-06T08:56:46.374Z,-3.42
2023-02-06T08:59:15.966Z,-3.41
2023-02-06T09:01:44.387Z,-3.38
2023-02-06T09:04:13.754Z,-3.35
2023-02-06T09:06:44.029Z,-3.34
2023-02-06T09:09:12.426Z,-3.38
2023-02-06T09:11:40.421Z,-3.39
2023-02-06T09:14:12.750Z,-3.40
2023-02-06T09:16:40.541Z,-3.42
2023-02-06T09:19:08.374Z,-3.43
2023-02-06T09:21:36.244Z,-3.43
2023-02-06T09:24:07.547Z,-3.45
2023-02-06T09:26:44.863Z,-3.47
2023-02-06T09:29:21.466Z,-3.51
2023-02-06T09:31:49.092Z,-3.55
2023-02-06T09:34:16.983Z,-3.56
2023-02-06T09:36:44.556Z,-3.58
2023-02-06T09:39:12.258Z,-3.59
2023-02-06T09:41:44.271Z,-3.55
2023-02-06T09:44:17.865Z,-3.50
2023-02-06T09:46:50.621Z,-3.47
2023-02-06T09:49:25.443Z,-3.45
2023-02-06T09:52:06.091Z,-3.41
2023-02-06T09:55:06.907Z,-3.35
2023-02-06T09:57:54.767Z,-3.24
2023-02-06T10:00:42.833Z,-3.10
2023-02-06T10:03:13.550Z,-2.99
2023-02-06T10:05:59.309Z,-2.84
2023-02-06T10:08:52.230Z,-2.66
2023-02-06T10:11:37.990Z,-2.55
2023-02-06T10:14:44.209Z,-2.54
2023-02-06T10:17:41.158Z,-2.56
2023-02-06T10:20:22.519Z,-2.60
2023-02-06T10:23:27.819Z,-2.54
2023-02-06T10:26:11.025Z,-2.51
2023-02-06T10:28:39.715Z,-2.46
2023-02-06T10:31:54.527Z,-2.42
2023-02-06T10:34:56.908Z,-2.33
2023-02-06T10:37:36.052Z,-2.27
2023-02-06T10:40:37.552Z,-2.25
2023-02-06T10:43:31.482Z,-2.19
2023-02-06T10:46:33.508Z,-2.18
2023-02-06T10:49:12.915Z,-2.08
2023-02-06T10:51:44.116Z,-2.02
2023-02-06T10:54:18.337Z,-1.91
2023-02-06T10:56:47.760Z,-1.78
2023-02-06T10:59:27.188Z,-1.68
2023-02-06T11:02:20.335Z,-1.51
2023-02-06T11:05:09.957Z,-1.42
2023-02-06T11:07:51.315Z,-1.19
2023-02-06T11:10:21.908Z,-0.87
2023-02-06T11:13:11.330Z,-0.73
2023-02-06T11:15:46.278Z,-0.57
2023-02-06T11:18:28.813Z,-0.46
2023-02-06T11:20:56.636Z,-0.31
2023-02-06T11:23:26.982Z,-0.23
2023-02-06T11:26:14.638Z,-0.25
2023-02-06T11:29:08.875Z,-0.29
2023-02-06T11:31:47.196Z,-0.29
2023-02-06T11:34:23.426Z,-0.20
2023-02-06T11:36:53.949Z,-0.19
2023-02-06T11:39:28.767Z,-0.28
2023-02-06T11:42:03.723Z,-0.28
2023-02-06T11:44:40.401Z,-0.12
2023-02-06T11:47:32.047Z,0.11
2023-02-06T11:50:15.062Z,0.41
2023-02-06T11:52:47.019Z,0.68
2023-02-06T11:55:33.142Z,0.86
2023-02-06T11:58:12.514Z,1.13
2023-02-06T12:01:01.800Z,1.14
2023-02-06T12:03:51.908Z,0.98
2023-02-06T12:06:48.630Z,0.82
2023-02-06T12:09:16.194Z,0.70
2023-02-06T12:11:49.689Z,0.60
2023-02-06T12:14:35.877Z,0.51
2023-02-06T12:17:09.517Z,0.64
2023-02-06T12:19:47.050Z,0.95
2023-02-06T12:22:23.080Z,1.01
2023-02-06T12:24:53.390Z,0.91
2023-02-06T12:27:27.707Z,0.90
2023-02-06T12:30:09.154Z,0.93
2023-02-06T12:32:45.051Z,0.83
2023-02-06T12:35:27.453Z,0.75
2023-02-06T12:38:04.189Z,0.72
2023-02-06T12:40:55.851Z,0.70
2023-02-06T12:43:23.685Z,0.63
2023-02-06T12:46:16.461Z,0.63
2023-02-06T12:48:54.743Z,0.54
2023-02-06T12:51:22.561Z,0.33
2023-02-06T12:53:57.842Z,0.25
2023-02-06T12:56:44.188Z,0.15
2023-02-06T12:59:29.898Z,0.09
2023-02-06T13:02:03.502Z,0.13
2023-02-06T13:04:35.854Z,0.31
2023-02-06T13:07:13.103Z,0.70
2023-02-06T13:09:48.577Z,1.72
2023-02-06T13:12:22.498Z,3.00
2023-02-06T13:15:08.013Z,4.45
2023-02-06T13:17:40.320Z,5.70
2023-02-06T13:20:12.253Z,7.10
2023-02-06T13:22:46.082Z,8.54
2023-02-06T13:25:25.877Z,9.79
2023-02-06T13:27:55.006Z,11.06
2023-02-06T13:30:28.898Z,11.25
2023-02-06T13:33:16.541Z,11.83
2023-02-06T13:36:03.617Z,12.62
2023-02-06T13:38:34.304Z,12.40
2023-02-06T13:41:14.331Z,12.57
2023-02-06T13:44:09.523Z,12.55
2023-02-06T13:46:43.634Z,11.51
2023-02-06T13:49:29.667Z,11.96
2023-02-06T13:52:06.847Z,12.50
2023-02-06T13:54:56.610Z,13.18
2023-02-06T13:57:49.395Z,11.96
2023-02-06T14:00:30.095Z,10.00
2023-02-06T14:03:13.448Z,10.10
2023-02-06T14:06:04.402Z,10.30
2023-02-06T14:08:41.138Z,10.04
2023-02-06T14:11:44.501Z,8.75
2023-02-06T14:14:41.268Z,6.87
2023-02-06T14:17:27.724Z,5.22
2023-02-06T14:20:02.102Z,3.76
2023-02-06T14:22:42.534Z,3.38
2023-02-06T14:25:28.809Z,3.79
2023-02-06T14:27:59.713Z,3.68
2023-02-06T14:30:53.100Z,3.30
2023-02-06T14:33:39.549Z,2.21
2023-02-06T14:36:22.072Z,1.24
2023-02-06T14:38:58.935Z,0.44
2023-02-06T14:41:32.015Z,-0.19
2023-02-06T14:44:00.549Z,-0.80
2023-02-06T14:46:29.096Z,-1.29
2023-02-06T14:48:59.799Z,-1.67
2023-02-06T14:51:36.428Z,-1.97
2023-02-06T14:54:07.012Z,-2.19
2023-02-06T14:56:37.456Z,-2.36
2023-02-06T14:59:14.493Z,-2.56
2023-02-06T15:01:45.441Z,-2.75
2023-02-06T15:04:22.188Z,-2.87
2023-02-06T15:06:54.165Z,-2.98
2023-02-06T15:09:29.441Z,-3.09
2023-02-06T15:12:00.512Z,-3.21
2023-02-06T15:14:33.942Z,-3.33
2023-02-06T15:17:02.457Z,-3.43
2023-02-06T15:19:32.995Z,-3.52
2023-02-06T15:22:16.540Z,-3.61
2023-02-06T15:25:11.350Z,-3.74
2023-02-06T15:27:39.671Z,-3.88
2023-02-06T15:30:20.887Z,-3.99
2023-02-06T15:32:51.860Z,-4.11
2023-02-06T15:35:25.656Z,-4.23
2023-02-06T15:37:54.330Z,-4.34
2023-02-06T15:40:31.840Z,-4.46
2023-02-06T15:43:01.728Z,-4.59
2023-02-06T15:45:34.046Z,-4.71
2023-02-06T15:48:12.490Z,-4.83
2023-02-06T15:50:40.053Z,-4.96
2023-02-06T15:53:18.737Z,-5.08
2023-02-06T15:55:55.594Z,-5.19
2023-02-06T15:58:24.105Z,-5.31
2023-02-06T16:00:57.215Z,-5.44
2023-02-06T16:03:28.192Z,-5.57
2023-02-06T16:05:56.679Z,-5.68
2023-02-06T16:08:31.909Z,-5.79
2023-02-06T16:11:04.220Z,-5.90
2023-02-06T16:13:32.864Z,-6.01
2023-02-06T16:16:16.525Z,-6.10
2023-02-06T16:18:44.267Z,-6.20
2023-02-06T16:21:18.625Z,-6.24
2023-02-06T16:23:58.805Z,-6.23
2023-02-06T16:26:29.674Z,-6.25
2023-02-06T16:29:09.847Z,-6.29
2023-02-06T16:31:40.685Z,-6.35
2023-02-06T16:34:31.875Z,-6.42
2023-02-06T16:36:59.464Z,-6.50
2023-02-06T16:39:27.243Z,-6.58
2023-02-06T16:41:54.922Z,-6.67
2023-02-06T16:44:23.166Z,-6.75
2023-02-06T16:46:51.883Z,-6.82
2023-02-06T16:49:22.506Z,-6.91
2023-02-06T16:51:52.097Z,-7.00
2023-02-06T16:54:28.767Z,-7.10
2023-02-06T16:57:07.241Z,-7.18
2023-02-06T16:59:35.441Z,-7.26
2023-02-06T17:02:11.039Z,-7.33
2023-02-06T17:04:39.364Z,-7.40
2023-02-06T17:07:36.347Z,-7.47
2023-02-06T17:10:05.426Z,-7.56
2023-02-06T17:12:34.714Z,-7.64
2023-02-06T17:15:02.567Z,-7.69
2023-02-06T17:17:30.327Z,-7.74
2023-02-06T17:19:58.434Z,-7.78
2023-02-06T17:22:26.342Z,-7.83
2023-02-06T17:24:54.030Z,-7.87
2023-02-06T17:27:22.559Z,-7.91
2023-02-06T17:29:50.634Z,-7.95
2023-02-06T17:32:18.627Z,-7.99
2023-02-06T17:34:46.647Z,-8.03
2023-02-06T17:37:14.777Z,-8.07
2023-02-06T17:39:42.573Z,-8.12
2023-02-06T17:42:10.289Z,-8.17
2023-02-06T17:44:38.274Z,-8.23
2023-02-06T17:47:06.059Z,-8.28
2023-02-06T17:49:33.629Z,-8.33
2023-02-06T17:52:01.343Z,-8.39
2023-02-06T17:54:29.312Z,-8.45
2023-02-06T17:56:56.962Z,-8.51
2023-02-06T17:59:24.566Z,-8.57
2023-02-06T18:01:52.456Z,-8.63
2023-02-06T18:04:20.590Z,-8.71
2023-02-06T18:06:48.726Z,-8.79
2023-02-06T18:09:16.545Z,-8.87
2023-02-06T18:11:44.313Z,-8.94
2023-02-06T18:14:12.118Z,-9.00
2023-02-06T18:16:39.889Z,-9.03
2023-02-06T18:19:07.675Z,-9.06
2023-02-06T18:21:35.405Z,-9.09
2023-02-06T18:24:03.424Z,-9.12
2023-02-06T18:26:31.155Z,-9.14
2023-02-06T18:28:59.406Z,-9.16
2023-02-06T18:31:30.360Z,-9.19
2023-02-06T18:33:58.193Z,-9.23
2023-02-06T18:36:26.810Z,-9.27
2023-02-06T18:38:54.834Z,-9.31
2023-02-06T18:41:22.818Z,-9.37
2023-02-06T18:43:50.399Z,-9.44
2023-02-06T18:46:18.231Z,-9.51
2023-02-06T18:48:46.134Z,-9.55
2023-02-06T18:51:14.017Z,-9.60
2023-02-06T18:53:41.719Z,-9.67
2023-02-06T18:56:09.269Z,-9.73
2023-02-06T18:58:37.049Z,-9.79
2023-02-06T19:01:15.451Z,-9.85
2023-02-06T19:03:44.017Z,-9.91
2023-02-06T19:06:16.814Z,-9.95
2023-02-06T19:08:46.698Z,-9.97
2023-02-06T19:11:15.114Z,-9.98
2023-02-06T19:13:43.121Z,-10.00
2023-02-06T19:16:14.294Z,-10.00
2023-02-06T19:18:45.953Z,-10.01
2023-02-06T19:21:16.079Z,-10.03
2023-02-06T19:23:45.791Z,-10.04
2023-02-06T19:26:16.094Z,-10.07
2023-02-06T19:28:44.701Z,-10.12
2023-02-06T19:31:13.807Z,-10.16
2023-02-06T19:33:41.918Z,-10.18
2023-02-06T19:36:12.442Z,-10.20
2023-02-06T19:38:40.934Z,-10.22
2023-02-06T19:41:15.213Z,-10.24
2023-02-06T19:43:43.090Z,-10.26
2023-02-06T19:46:13.973Z,-10.29
2023-02-06T19:48:43.763Z,-10.31
2023-02-06T19:51:16.951Z,-10.34
2023-02-06T19:53:45.014Z,-10.35
2023-02-06T19:56:17.949Z,-10.36
2023-02-06T19:58:45.957Z,-10.37
2023-02-06T20:01:16.894Z,-10.38
2023-02-06T20:03:44.889Z,-10.39
2023-02-06T20:06:14.219Z,-10.40
2023-02-06T20:08:44.712Z,-10.42
2023-02-06T20:11:17.855Z,-10.43
2023-02-06T20:13:46.434Z,-10.45
2023-02-06T20:16:16.571Z,-10.48
2023-02-06T20:18:44.186Z,-10.50
2023-02-06T20:21:20.617Z,-10.50
2023-02-06T20:23:48.665Z,-10.50
2023-02-06T20:26:21.018Z,-10.51
2023-02-06T20:28:49.623Z,-10.52
2023-02-06T20:31:17.897Z,-10.55
2023-02-06T20:33:46.777Z,-10.56
2023-02-06T20:36:17.874Z,-10.58
2023-02-06T20:38:50.419Z,-10.62
2023-02-06T20:41:20.909Z,-10.66
2023-02-06T20:43:48.615Z,-10.70
2023-02-06T20:46:16.621Z,-10.73
2023-02-06T20:48:45.690Z,-10.76
2023-02-06T20:51:14.271Z,-10.76
2023-02-06T20:53:42.024Z,-10.78
2023-02-06T20:56:12.584Z,-10.80
2023-02-06T20:58:40.270Z,-10.83
2023-02-06T21:01:25.891Z,-10.86
2023-02-06T21:04:05.911Z,-10.90
2023-02-06T21:06:35.584Z,-10.91
2023-02-06T21:09:05.373Z,-10.92
2023-02-06T21:11:37.375Z,-10.92
2023-02-06T21:14:06.659Z,-10.94
2023-02-06T21:16:35.549Z,-10.95
2023-02-06T21:19:05.710Z,-10.96
2023-02-06T21:21:34.094Z,-10.97
2023-02-06T21:24:01.937Z,-10.99
2023-02-06T21:26:30.163Z,-10.99
2023-02-06T21:28:59.189Z,-11.01
2023-02-06T21:31:31.375Z,-11.04
2023-02-06T21:34:01.084Z,-11.05
2023-02-06T21:36:30.357Z,-11.05
2023-02-06T21:38:58.078Z,-11.07
2023-02-06T21:41:26.811Z,-11.10
2023-02-06T21:43:54.696Z,-11.11
2023-02-06T21:46:22.299Z,-11.11
2023-02-06T21:48:53.837Z,-11.14
2023-02-06T21:51:21.640Z,-11.17
2023-02-06T21:53:49.706Z,-11.21
2023-02-06T21:56:22.679Z,-11.25
2023-02-06T21:58:50.766Z,-11.27
2023-02-06T22:01:21.951Z,-11.30
2023-02-06T22:03:50.055Z,-11.32
2023-02-06T22:06:18.627Z,-11.32
2023-02-06T22:08:48.596Z,-11.30
2023-02-06T22:11:28.144Z,-11.30
2023-02-06T22:14:00.978Z,-11.32
2023-02-06T22:16:29.150Z,-11.34
2023-02-06T22:18:57.686Z,-11.38
2023-02-06T22:21:27.771Z,-11.42
2023-02-06T22:23:57.454Z,-11.43
2023-02-06T22:26:26.900Z,-11.45
2023-02-06T22:28:54.758Z,-11.50
2023-02-06T22:31:25.550Z,-11.52
2023-02-06T22:33:53.623Z,-11.54
2023-02-06T22:36:24.891Z,-11.56
2023-02-06T22:39:04.665Z,-11.59
2023-02-06T22:41:33.192Z,-11.61
2023-02-06T22:44:01.144Z,-11.64
2023-02-06T22:46:34.971Z,-11.65
2023-02-06T22:49:05.128Z,-11.67
2023-02-06T22:51:32.956Z,-11.68
2023-02-06T22:54:01.169Z,-11.70
2023-02-06T22:56:32.433Z,-11.70
2023-02-06T22:59:03.093Z,-11.72
2023-02-06T23:01:34.421Z,-11.73
2023-02-06T23:04:03.815Z,-11.76
2023-02-06T23:06:33.080Z,-11.76
2023-02-06T23:09:02.028Z,-11.77
2023-02-06T23:11:30.397Z,-11.78
2023-02-06T23:14:01.709Z,-11.79
2023-02-06T23:16:31.143Z,-11.80
2023-02-06T23:19:00.996Z,-11.81
2023-02-06T23:21:28.877Z,-11.83
2023-02-06T23:23:57.000Z,-11.85
2023-02-06T23:26:24.766Z,-11.85
2023-02-06T23:28:52.734Z,-11.85
2023-02-06T23:31:20.742Z,-11.86
2023-02-06T23:33:48.394Z,-11.87
2023-02-06T23:36:18.439Z,-11.87
2023-02-06T23:38:46.194Z,-11.88
2023-02-06T23:41:20.180Z,-11.90
2023-02-06T23:43:55.592Z,-11.92
2023-02-06T23:46:24.455Z,-11.93
2023-02-06T23:48:52.926Z,-11.95
2023-02-06T23:51:22.684Z,-11.98
2023-02-06T23:53:51.056Z,-12.02
2023-02-06T23:56:22.522Z,-12.07
2023-02-06T23:58:51.300Z,-12.12
